Hauptseite
METAR-TAF:

METAR-TAF

Flughäfen :

Siegerlandflughafen

Siegen, Deutschland

Breite: 50-42-28N, Länge: 008-04-59E, Höhe: 602 m

Beobachtung

Neuester Wetterbericht von vor 14 Stunden und 31 Minuten, um 12:50 UTC
Wind 5 kt aus Ost/Südost, variierte zwischen Ost/Nordost und Südost
Temperatur 10°C
Luftfeuchtigkeit 53%
Luftdruck 1020 hPa
Sichtweite 10 km oder mehr
keine Wolken unter 1500 m und keine Kumulonimbus oder Gewitterwolken

METAR: EDGS 171250Z 11005KT 070V140 CAVOK 10/01 Q1020

Zeit: 05:21 (03:21 UTC)

Prognose

Neuester Wetterbericht von vor 16 Stunden und 21 Minuten, um 11:00 UTC
Gültige Prognose vom 17 um 12 UTC bis 17 um 21 UTC
Wind 5 kt aus Süd/Südost
Sichtweite 10 km oder mehr
keine Wolken unter 1500 m und keine Kumulonimbus oder Gewitterwolken
Übergehend zu
vom 17 um 15 UTC bis 17 um 18 UTC
Wind 2 kt aus unterschiedlichen Richtungen

TAF: EDGS 171100Z 1712/1721 16005KT CAVOK BECMG 1715/1718 VRB02KT

Wetterbeobachtungen und Prognosen von mehr als 4000 Flughäfen (METAR und TAF Bericht).

Die verfügbaren Stationen werden durch gelbe und rote Markierungen auf der Karte dargestellt.

Führen Sie die Maus auf sie, um den Namen der Station zu sehen.

Darauf klicken, um die Beobachtung von Wetterbeobachtungen und Prognosen zu sehen.

Um die Karte zu ändern : klicken Sie auf den grünen Tasten mit einem schwarzen Kreuz Zum Vergrößern, auf den grünen Button mit einem Gedankenstrich zu verkleinern, oder auf die grünen Pfeile für benachbarte Karten.


METAR-TAF: